Time;durP1;ratioP1;P1;durP2;ratioP2;P2;SDS_P1;SDS_P2;PMS_P1;PMS_P2;Temp;Humidity;BMP_temperature;BMP_pressure;BME280_temperature;BME280_humidity;BME280_pressure;Samples;Min_cycle;Max_cycle;Signal;HPM_P1;HPM_P2
2024/03/09 00:00:24;;;;;;;19.70;16.60;;;;;;;5.03;66.51;97326.72;4976071;28;20027;-76
2024/03/09 00:02:54;;;;;;;19.50;16.30;;;;;;;5.02;67.13;97352.56;4967230;28;20035;-75
2024/03/09 00:05:21;;;;;;;19.80;16.92;;;;;;;5.13;66.68;97343.78;4987641;28;20093;-77
2024/03/09 00:07:48;;;;;;;20.85;17.48;;;;;;;4.93;67.21;97337.94;4978968;28;20402;-77
2024/03/09 00:10:22;;;;;;;19.35;17.25;;;;;;;5.03;66.20;97327.53;4963346;28;20031;-76
2024/03/09 00:12:51;;;;;;;22.25;17.15;;;;;;;4.86;66.82;97331.91;4976983;28;20512;-76
2024/03/09 00:15:19;;;;;;;18.90;16.63;;;;;;;4.70;67.57;97328.06;4966564;28;20034;-76
2024/03/09 00:17:53;;;;;;;18.90;16.58;;;;;;;4.86;67.62;97347.91;4978910;28;20671;-77
2024/03/09 00:20:27;;;;;;;21.52;18.05;;;;;;;4.90;67.29;97338.44;4967980;28;20043;-77
2024/03/09 00:22:57;;;;;;;19.20;17.05;;;;;;;4.83;66.98;97335.84;4969971;28;20640;-76
2024/03/09 00:25:23;;;;;;;21.42;17.90;;;;;;;4.93;67.12;97343.28;4971664;28;20023;-77
2024/03/09 00:27:50;;;;;;;19.60;16.92;;;;;;;4.76;67.58;97332.47;4970624;28;20042;-77
2024/03/09 00:30:22;;;;;;;21.15;17.88;;;;;;;4.76;66.78;97331.66;4965021;28;20025;-77
2024/03/09 00:32:50;;;;;;;21.13;17.67;;;;;;;4.59;67.33;97330.69;4977858;28;20482;-77
2024/03/09 00:35:15;;;;;;;21.75;17.73;;;;;;;4.71;68.16;97351.00;4963854;28;20061;-76
2024/03/09 00:37:41;;;;;;;20.42;17.33;;;;;;;4.77;67.58;97343.94;4971449;28;20076;-76
2024/03/09 00:40:12;;;;;;;23.63;18.77;;;;;;;4.68;67.95;97342.66;5003696;28;20030;-76
2024/03/09 00:42:48;;;;;;;21.88;18.17;;;;;;;4.63;67.65;97347.84;4973233;28;20405;-77
2024/03/09 00:45:16;;;;;;;21.38;18.15;;;;;;;4.57;68.00;97335.44;4950153;28;20039;-76
2024/03/09 00:47:46;;;;;;;21.38;17.73;;;;;;;4.49;67.93;97335.75;4980750;28;20029;-77
2024/03/09 00:50:12;;;;;;;21.25;18.67;;;;;;;4.49;67.95;97333.09;4974547;28;20074;-76
2024/03/09 00:52:38;;;;;;;21.20;18.02;;;;;;;4.42;67.87;97325.19;4990485;28;20109;-75
2024/03/09 00:55:14;;;;;;;19.80;17.50;;;;;;;4.48;68.01;97328.81;4967789;28;20034;-74
2024/03/09 00:57:56;;;;;;;20.73;17.48;;;;;;;4.42;67.68;97319.84;4968541;28;20402;-77
2024/03/09 01:00:23;;;;;;;25.73;19.33;;;;;;;4.32;68.20;97308.13;4982321;28;20117;-76
2024/03/09 01:02:52;;;;;;;20.38;17.48;;;;;;;4.32;68.22;97324.13;4974799;28;20372;-77
2024/03/09 01:05:22;;;;;;;20.30;17.55;;;;;;;4.20;68.33;97314.19;4977894;28;20045;-77
2024/03/09 01:07:49;;;;;;;22.40;18.52;;;;;;;4.17;68.23;97306.69;4973459;28;20034;-77
2024/03/09 01:10:21;;;;;;;21.05;16.95;;;;;;;4.18;68.60;97334.94;4979737;28;20035;-77
2024/03/09 01:12:47;;;;;;;21.33;17.38;;;;;;;4.10;68.78;97321.13;4985101;28;20043;-77
2024/03/09 01:15:14;;;;;;;24.58;19.77;;;;;;;4.03;69.20;97318.56;4964799;28;20363;-77
2024/03/09 01:17:39;;;;;;;20.52;18.23;;;;;;;3.78;69.30;97271.75;4967374;28;20068;-76
2024/03/09 01:20:10;;;;;;;21.08;17.52;;;;;;;4.10;69.74;97329.94;4979193;28;20064;-76
2024/03/09 01:22:37;;;;;;;20.17;17.00;;;;;;;4.12;69.75;97319.88;4988938;28;20403;-77
2024/03/09 01:25:03;;;;;;;22.63;17.95;;;;;;;4.04;69.72;97279.38;4958238;28;20033;-74
2024/03/09 01:27:30;;;;;;;20.52;17.65;;;;;;;4.31;69.25;97317.16;4967541;28;20038;-75
2024/03/09 01:29:59;;;;;;;20.13;16.75;;;;;;;4.36;69.28;97306.63;4964937;28;20031;-75
2024/03/09 01:32:35;;;;;;;18.40;16.45;;;;;;;4.09;69.54;97269.69;4963747;28;20123;-75
2024/03/09 01:35:05;;;;;;;20.10;17.50;;;;;;;4.33;69.65;97293.75;4979656;28;20042;-75
2024/03/09 01:37:48;;;;;;;20.60;17.50;;;;;;;4.39;69.36;97292.84;4987776;28;20033;-75
2024/03/09 01:40:14;;;;;;;18.65;16.58;;;;;;;4.38;68.96;97283.22;4972804;28;20049;-76
2024/03/09 01:42:43;;;;;;;20.73;17.60;;;;;;;4.40;68.99;97283.81;4972866;28;20436;-75
2024/03/09 01:45:18;;;;;;;21.40;17.95;;;;;;;4.36;68.91;97283.47;4977444;28;20398;-75
2024/03/09 01:47:46;;;;;;;19.23;17.23;;;;;;;4.26;68.75;97267.19;4952227;28;20035;-75
2024/03/09 01:50:12;;;;;;;20.35;17.70;;;;;;;4.10;69.57;97247.34;4968536;28;20093;-76
2024/03/09 01:52:39;;;;;;;19.63;17.13;;;;;;;4.05;69.81;97241.88;4969234;28;20038;-75
2024/03/09 01:55:10;;;;;;;20.33;17.17;;;;;;;4.24;69.65;97273.78;4973944;28;20022;-75
2024/03/09 01:57:37;;;;;;;19.90;16.92;;;;;;;4.21;69.66;97256.41;4948740;28;20054;-75
2024/03/09 02:00:09;;;;;;;21.00;17.15;;;;;;;4.28;69.97;97254.44;4981290;28;20022;-75
2024/03/09 02:02:36;;;;;;;20.15;17.42;;;;;;;4.22;69.75;97237.50;4958196;28;20047;-76
2024/03/09 02:05:10;;;;;;;19.85;17.35;;;;;;;4.22;69.76;97249.22;4973697;28;20069;-76
2024/03/09 02:07:41;;;;;;;19.42;17.33;;;;;;;4.30;69.19;97248.88;4971548;28;20509;-75
2024/03/09 02:10:07;;;;;;;20.90;17.83;;;;;;;4.18;69.22;97236.34;4963669;28;20050;-75
2024/03/09 02:12:32;;;;;;;19.50;17.10;;;;;;;4.14;69.63;97227.19;4990214;28;20025;-76
2024/03/09 02:14:59;;;;;;;20.52;18.25;;;;;;;4.31;69.95;97242.53;4982534;28;20034;-76
2024/03/09 02:17:33;;;;;;;21.33;18.50;;;;;;;4.16;69.03;97208.31;4986767;28;20070;-75
2024/03/09 02:19:59;;;;;;;21.65;17.45;;;;;;;4.19;69.40;97235.31;4981285;28;20126;-75
2024/03/09 02:22:25;;;;;;;21.80;17.50;;;;;;;4.18;69.69;97233.69;4975787;28;20118;-76
2024/03/09 02:24:58;;;;;;;20.30;16.98;;;;;;;4.12;69.58;97234.59;4975989;28;20812;-75
2024/03/09 02:27:27;;;;;;;20.67;18.42;;;;;;;4.13;69.60;97241.53;4986334;28;20105;-76
2024/03/09 02:29:53;;;;;;;21.05;17.73;;;;;;;3.92;69.37;97228.72;4970955;28;20030;-76
2024/03/09 02:32:21;;;;;;;23.45;19.67;;;;;;;3.91;70.19;97235.09;4973984;28;20039;-76
2024/03/09 02:34:47;;;;;;;22.27;18.55;;;;;;;3.78;70.25;97226.50;4978739;28;20022;-76
2024/03/09 02:37:13;;;;;;;20.10;17.35;;;;;;;3.83;69.96;97227.41;4971123;28;20094;-75
2024/03/09 02:39:41;;;;;;;22.90;19.10;;;;;;;3.86;69.92;97240.28;4980863;28;20465;-76
2024/03/09 02:42:08;;;;;;;20.20;17.98;;;;;;;3.77;69.91;97230.19;4952136;28;20034;-76
2024/03/09 02:44:34;;;;;;;20.67;18.45;;;;;;;3.67;69.89;97222.72;4974145;28;20434;-75
2024/03/09 02:47:04;;;;;;;20.55;18.27;;;;;;;3.66;70.22;97229.09;4974250;28;20042;-75
2024/03/09 02:49:31;;;;;;;20.30;17.35;;;;;;;3.64;70.86;97233.81;4959689;28;20133;-76
2024/03/09 02:51:56;;;;;;;21.35;17.48;;;;;;;3.67;70.58;97236.03;4978853;28;20026;-75
2024/03/09 02:54:23;;;;;;;21.65;18.20;;;;;;;3.62;70.53;97217.25;4972277;28;20035;-76
2024/03/09 02:56:49;;;;;;;22.35;18.52;;;;;;;3.64;70.88;97225.03;4972822;28;20027;-75
2024/03/09 02:59:16;;;;;;;21.58;17.80;;;;;;;3.12;71.07;97133.38;4972724;28;20082;-75
2024/03/09 03:01:41;;;;;;;21.17;17.63;;;;;;;3.68;71.23;97220.88;4973078;28;20030;-76
2024/03/09 03:04:07;;;;;;;21.95;17.77;;;;;;;3.64;71.44;97193.09;4973957;28;20453;-76
2024/03/09 03:06:32;;;;;;;21.83;18.02;;;;;;;3.89;70.88;97234.53;4953423;28;20026;-76
2024/03/09 03:09:11;;;;;;;21.10;17.75;;;;;;;3.76;70.74;97208.06;4975422;28;20427;-76
2024/03/09 03:11:36;;;;;;;21.25;17.60;;;;;;;3.96;70.80;97227.25;4972889;28;20047;-75
2024/03/09 03:14:01;;;;;;;20.95;18.02;;;;;;;4.04;70.81;97220.78;4977075;28;20034;-76
2024/03/09 03:16:28;;;;;;;19.17;16.52;;;;;;;4.06;70.60;97224.06;4975176;28;20042;-76
2024/03/09 03:18:58;;;;;;;20.73;16.70;;;;;;;4.05;70.46;97217.91;4967796;28;20059;-75
2024/03/09 03:21:24;;;;;;;19.85;17.45;;;;;;;3.99;70.21;97191.38;4955514;28;20030;-75
2024/03/09 03:23:50;;;;;;;21.08;17.35;;;;;;;4.08;70.27;97217.44;4956659;28;20034;-76
2024/03/09 03:26:16;;;;;;;20.25;17.52;;;;;;;4.02;70.24;97210.34;4964476;28;20421;-75
2024/03/09 03:28:47;;;;;;;21.75;17.63;;;;;;;4.06;70.25;97216.84;4958767;28;20031;-75
2024/03/09 03:31:16;;;;;;;20.75;17.98;;;;;;;4.08;69.77;97212.09;4972435;28;20560;-75
2024/03/09 03:33:45;;;;;;;19.70;17.60;;;;;;;3.98;70.08;97195.88;4961054;28;20515;-75
2024/03/09 03:36:20;;;;;;;21.98;16.67;;;;;;;3.99;70.27;97202.81;4981924;28;20023;-75
2024/03/09 03:38:49;;;;;;;19.15;17.05;;;;;;;4.11;70.12;97213.50;4978020;28;20039;-76
2024/03/09 03:41:15;;;;;;;18.95;16.10;;;;;;;3.98;70.43;97201.22;4983181;28;20042;-75
2024/03/09 03:43:42;;;;;;;19.77;16.50;;;;;;;4.15;70.00;97207.50;4956660;28;20124;-75
2024/03/09 03:46:09;;;;;;;19.08;16.77;;;;;;;4.02;69.68;97186.38;4957864;28;20062;-75
2024/03/09 03:48:35;;;;;;;21.10;16.98;;;;;;;4.14;70.22;97211.22;4966366;28;20038;-75
2024/03/09 03:51:01;;;;;;;18.88;16.42;;;;;;;4.10;69.86;97199.41;4976270;28;20430;-74
2024/03/09 03:53:27;;;;;;;21.90;17.15;;;;;;;4.10;69.68;97199.41;4986284;28;20034;-73
2024/03/09 03:55:58;;;;;;;20.60;16.80;;;;;;;4.10;69.75;97210.06;4982359;28;20069;-76
2024/03/09 03:58:25;;;;;;;21.45;17.55;;;;;;;3.96;69.58;97192.63;4981854;28;20062;-75
2024/03/09 04:00:53;;;;;;;20.35;16.15;;;;;;;4.07;70.25;97210.50;4992190;28;20038;-75
2024/03/09 04:03:26;;;;;;;18.20;16.20;;;;;;;4.15;69.94;97207.50;4959868;28;20041;-75
2024/03/09 04:05:53;;;;;;;22.77;17.55;;;;;;;3.98;70.41;97182.56;4974626;28;20498;-75
2024/03/09 04:08:19;;;;;;;20.52;16.95;;;;;;;4.11;70.02;97216.16;4966259;28;20045;-74
2024/03/09 04:10:46;;;;;;;18.85;16.85;;;;;;;3.97;70.54;97210.22;4982885;28;20490;-75
2024/03/09 04:13:14;;;;;;;19.85;16.50;;;;;;;4.06;70.34;97224.84;4989572;28;20038;-75
2024/03/09 04:15:44;;;;;;;21.42;16.83;;;;;;;3.86;70.16;97181.72;4961133;28;20402;-75
2024/03/09 04:18:09;;;;;;;20.92;17.38;;;;;;;4.00;70.44;97215.09;4961407;28;20035;-75
2024/03/09 04:20:35;;;;;;;19.67;17.02;;;;;;;4.02;70.41;97218.34;4974194;28;20070;-75
2024/03/09 04:23:07;;;;;;;18.88;16.67;;;;;;;4.13;70.07;97233.56;4981016;28;20051;-75
2024/03/09 04:25:35;;;;;;;19.77;17.15;;;;;;;4.08;70.17;97233.41;4962152;28;20493;-74
2024/03/09 04:28:01;;;;;;;20.00;17.00;;;;;;;4.04;70.32;97228.78;4983272;28;20495;-76
2024/03/09 04:30:27;;;;;;;19.75;16.60;;;;;;;4.03;70.64;97229.81;4963973;28;20038;-76
2024/03/09 04:32:55;;;;;;;19.95;17.15;;;;;;;3.80;70.68;97198.59;4956585;28;20038;-76
2024/03/09 04:35:20;;;;;;;19.63;16.83;;;;;;;4.01;70.58;97243.34;4980207;28;20073;-76
2024/03/09 04:37:46;;;;;;;19.27;16.92;;;;;;;3.94;70.33;97232.00;4976383;28;20490;-76
2024/03/09 04:40:15;;;;;;;20.08;16.85;;;;;;;3.96;70.03;97231.78;4982978;28;20083;-76
2024/03/09 04:42:46;;;;;;;21.73;17.65;;;;;;;4.03;70.17;97249.28;4978855;28;20033;-76
2024/03/09 04:45:12;;;;;;;20.05;17.83;;;;;;;3.97;70.23;97242.19;4972711;28;20122;-75
2024/03/09 04:47:38;;;;;;;20.27;17.73;;;;;;;3.97;69.79;97244.84;4998496;23;20049;-74
2024/03/09 04:50:05;;;;;;;21.85;18.08;;;;;;;3.92;69.84;97239.38;4984107;28;20039;-75
2024/03/09 04:52:30;;;;;;;19.95;16.92;;;;;;;3.96;69.81;97251.22;4987257;28;20116;-74
2024/03/09 04:54:55;;;;;;;20.38;17.23;;;;;;;3.76;70.03;97234.69;4982676;28;20062;-74
2024/03/09 04:57:24;;;;;;;20.17;17.92;;;;;;;3.84;70.12;97241.56;4979006;28;20030;-75
2024/03/09 04:59:50;;;;;;;21.83;18.33;;;;;;;3.73;69.94;97235.16;4989998;28;20042;-75
2024/03/09 05:02:17;;;;;;;21.63;18.60;;;;;;;3.71;69.94;97237.19;4961747;28;20247;-74
2024/03/09 05:04:43;;;;;;;20.73;18.45;;;;;;;3.60;70.18;97232.66;4965345;28;20035;-75
2024/03/09 05:07:09;;;;;;;20.48;18.27;;;;;;;3.56;70.58;97228.00;4956892;28;20042;-74
2024/03/09 05:09:37;;;;;;;22.52;18.17;;;;;;;3.42;70.23;97219.38;4959714;28;20080;-75
2024/03/09 05:12:03;;;;;;;21.92;17.80;;;;;;;3.30;70.82;97203.34;4966773;28;20031;-75
2024/03/09 05:14:30;;;;;;;21.30;17.92;;;;;;;3.35;70.69;97207.97;4998260;28;20045;-76
2024/03/09 05:16:56;;;;;;;21.77;18.48;;;;;;;3.30;71.42;97218.47;4988744;28;20084;-75
2024/03/09 05:19:21;;;;;;;21.08;18.20;;;;;;;3.24;70.67;97208.72;4958176;28;20043;-74
2024/03/09 05:21:47;;;;;;;21.67;17.67;;;;;;;3.15;71.15;97196.78;4971926;28;20038;-75
2024/03/09 05:24:12;;;;;;;21.83;18.20;;;;;;;3.23;71.59;97201.78;4962478;28;20042;-74
2024/03/09 05:26:42;;;;;;;23.60;19.48;;;;;;;3.22;71.71;97192.19;4992651;28;20050;-75
2024/03/09 05:29:13;;;;;;;19.33;16.95;;;;;;;3.17;71.54;97179.56;4974479;28;20038;-74
2024/03/09 05:31:39;;;;;;;20.48;18.27;;;;;;;3.21;71.77;97201.19;4991467;28;20045;-74
2024/03/09 05:34:09;;;;;;;22.10;18.13;;;;;;;3.17;71.35;97186.72;4973475;28;20149;-74
2024/03/09 05:36:35;;;;;;;19.83;17.30;;;;;;;3.22;71.81;97186.88;4974855;28;20117;-73
2024/03/09 05:39:01;;;;;;;21.48;18.55;;;;;;;3.14;72.22;97160.56;4970079;28;20030;-73
2024/03/09 05:41:26;;;;;;;20.27;17.83;;;;;;;3.18;72.56;97164.38;4971202;28;20043;-74
2024/03/09 05:43:52;;;;;;;21.90;18.95;;;;;;;3.28;72.66;97183.31;4967926;28;20030;-74
2024/03/09 05:46:17;;;;;;;22.00;18.17;;;;;;;3.29;72.88;97163.66;4976118;28;20493;-74
2024/03/09 05:48:46;;;;;;;22.70;18.40;;;;;;;3.40;72.77;97165.56;4975230;28;20465;-74
2024/03/09 05:51:14;;;;;;;21.50;17.63;;;;;;;3.36;72.61;97153.75;4976446;28;20034;-74
2024/03/09 05:53:40;;;;;;;20.55;17.55;;;;;;;3.15;72.68;97114.31;4974061;28;20022;-75
2024/03/09 05:56:06;;;;;;;21.33;18.30;;;;;;;3.37;72.23;97150.03;4951447;28;20046;-76
2024/03/09 05:58:32;;;;;;;20.92;18.38;;;;;;;3.45;72.26;97152.41;4961103;28;20034;-75
2024/03/09 06:00:58;;;;;;;22.25;18.95;;;;;;;3.32;72.84;97144.56;4975607;28;20030;-75
2024/03/09 06:03:24;;;;;;;22.05;18.50;;;;;;;3.35;73.25;97147.59;4992852;28;20022;-75
2024/03/09 06:05:49;;;;;;;22.52;19.20;;;;;;;3.28;73.15;97140.75;4964862;28;20045;-75
2024/03/09 06:08:16;;;;;;;23.45;19.63;;;;;;;3.38;72.40;97162.31;4971899;28;20064;-74
2024/03/09 06:10:41;;;;;;;25.60;20.40;;;;;;;3.30;72.60;97142.13;4959380;28;20490;-74
2024/03/09 06:13:06;;;;;;;21.90;19.08;;;;;;;3.32;72.77;97152.53;4975060;28;20034;-76
2024/03/09 06:15:33;;;;;;;27.02;21.55;;;;;;;3.19;72.57;97126.94;4977945;28;20065;-75
2024/03/09 06:17:58;;;;;;;23.83;19.35;;;;;;;3.30;73.29;97165.25;4991360;28;20038;-75
2024/03/09 06:20:28;;;;;;;24.20;20.58;;;;;;;3.23;72.75;97160.03;4959316;28;20042;-75
2024/03/09 06:22:55;;;;;;;24.23;20.25;;;;;;;3.30;73.11;97167.94;4974269;28;20034;-75
2024/03/09 06:25:25;;;;;;;29.67;22.75;;;;;;;3.29;73.29;97163.66;4971778;28;20030;-75
2024/03/09 06:27:59;;;;;;;25.15;19.15;;;;;;;3.28;73.95;97152.19;4975335;28;20038;-75
2024/03/09 06:30:26;;;;;;;23.55;19.45;;;;;;;3.45;73.90;97157.72;4973208;28;20474;-75
2024/03/09 06:32:53;;;;;;;23.15;20.42;;;;;;;3.52;73.44;97150.47;4982915;28;20030;-75
2024/03/09 06:35:19;;;;;;;21.20;17.75;;;;;;;3.77;73.62;97161.78;4990599;28;20042;-75
2024/03/09 06:38:00;;;;;;;45.17;35.47;;;;;;;3.86;72.90;97156.94;4983193;28;20031;-74
2024/03/09 06:40:30;;;;;;;27.90;23.08;;;;;;;3.90;72.60;97148.25;4958921;28;20648;-74
2024/03/09 06:43:07;;;;;;;33.45;25.88;;;;;;;3.89;72.42;97149.31;4960083;28;20065;-74
2024/03/09 06:45:33;;;;;;;22.48;19.58;;;;;;;4.15;72.63;97175.53;4971350;28;20042;-74
2024/03/09 06:47:59;;;;;;;81.63;54.85;;;;;;;4.28;72.52;97179.84;4974882;28;20033;-74
2024/03/09 06:50:26;;;;;;;39.38;30.17;;;;;;;4.39;72.01;97186.25;4988451;28;20034;-75
2024/03/09 06:52:51;;;;;;;21.95;18.63;;;;;;;4.31;72.12;97170.56;4952489;28;20034;-75
2024/03/09 06:55:19;;;;;;;20.50;17.90;;;;;;;4.30;71.70;97143.09;4989902;28;20433;-75
2024/03/09 06:57:46;;;;;;;20.00;17.30;;;;;;;4.44;71.56;97173.00;4973170;28;20117;-75
2024/03/09 07:00:13;;;;;;;18.60;16.35;;;;;;;4.46;71.46;97181.59;4973380;28;20070;-75
2024/03/09 07:02:43;;;;;;;19.58;17.15;;;;;;;4.52;71.29;97186.00;4989292;28;20142;-75
2024/03/09 07:05:12;;;;;;;19.00;16.88;;;;;;;4.51;71.05;97173.72;4982003;28;20049;-75
2024/03/09 07:07:38;;;;;;;22.15;17.67;;;;;;;4.53;71.41;97177.78;4991865;28;20030;-75
2024/03/09 07:10:12;;;;;;;19.23;16.80;;;;;;;4.59;71.27;97182.19;4978416;28;20126;-74
2024/03/09 07:12:41;;;;;;;20.67;17.15;;;;;;;4.64;70.14;97186.84;4973664;28;20038;-74
2024/03/09 07:15:11;;;;;;;18.58;16.52;;;;;;;4.70;70.87;97201.91;4983734;28;20422;-74
2024/03/09 07:17:37;;;;;;;18.75;16.75;;;;;;;4.63;70.92;97182.53;4992560;28;20053;-74
2024/03/09 07:20:11;;;;;;;19.63;17.23;;;;;;;4.73;70.75;97196.13;4973833;28;20030;-74
2024/03/09 07:22:41;;;;;;;19.77;17.55;;;;;;;4.80;70.93;97191.47;4993132;28;20121;-74
2024/03/09 07:25:10;;;;;;;18.42;16.33;;;;;;;4.95;70.12;97197.13;4996203;28;20034;-75
2024/03/09 07:27:36;;;;;;;19.98;17.67;;;;;;;4.90;70.74;97183.72;4991564;28;20047;-74
2024/03/09 07:30:04;;;;;;;21.02;18.20;;;;;;;4.97;70.38;97184.38;4971778;28;20422;-75
2024/03/09 07:32:31;;;;;;;18.75;16.52;;;;;;;4.93;69.70;97169.88;4969765;28;20035;-75
2024/03/09 07:34:56;;;;;;;19.10;16.95;;;;;;;5.04;70.47;97174.38;4960672;28;20504;-75
2024/03/09 07:37:22;;;;;;;20.45;16.23;;;;;;;5.11;69.82;97191.09;4974588;28;20038;-74
2024/03/09 07:39:47;;;;;;;19.88;16.33;;;;;;;5.10;69.53;97178.81;4989316;28;20034;-74
2024/03/09 07:42:13;;;;;;;18.27;16.30;;;;;;;5.15;69.19;97181.59;4975918;28;20038;-74
2024/03/09 07:44:38;;;;;;;20.30;16.10;;;;;;;5.15;69.64;97173.56;4988303;28;20027;-75
2024/03/09 07:47:04;;;;;;;18.95;15.95;;;;;;;5.24;69.06;97169.50;4959976;28;20038;-75
2024/03/09 07:49:29;;;;;;;19.25;16.23;;;;;;;5.27;69.38;97162.88;4977924;28;20153;-75
2024/03/09 07:51:56;;;;;;;19.40;16.00;;;;;;;5.45;69.44;97176.88;4974054;28;20038;-75
2024/03/09 07:54:22;;;;;;;18.75;16.23;;;;;;;5.48;68.61;97160.34;4967615;28;20031;-75
2024/03/09 07:56:48;;;;;;;19.23;15.75;;;;;;;5.56;68.54;97162.66;4976699;28;20530;-75
2024/03/09 07:59:13;;;;;;;18.08;15.85;;;;;;;5.66;68.03;97155.88;4990531;28;20104;-75
2024/03/09 08:01:39;;;;;;;19.58;15.15;;;;;;;5.72;67.80;97152.28;4977446;28;20041;-75
2024/03/09 08:04:05;;;;;;;18.02;15.52;;;;;;;5.78;67.39;97143.28;4975352;28;20486;-74
2024/03/09 08:06:30;;;;;;;18.10;15.52;;;;;;;5.96;67.35;97167.97;4989190;28;20114;-74
2024/03/09 08:08:56;;;;;;;17.23;15.43;;;;;;;6.02;67.39;97168.88;4992552;28;20041;-74
2024/03/09 08:11:22;;;;;;;17.73;15.52;;;;;;;5.95;66.97;97133.50;4957728;28;20030;-75
2024/03/09 08:13:48;;;;;;;17.00;14.13;;;;;;;6.01;66.95;97132.50;4992614;28;20033;-74
2024/03/09 08:16:14;;;;;;;17.45;15.02;;;;;;;6.15;66.27;97136.50;4974711;28;20039;-74
2024/03/09 08:18:39;;;;;;;16.38;14.32;;;;;;;6.28;66.30;97150.34;4990858;28;20485;-75
2024/03/09 08:21:05;;;;;;;18.60;14.80;;;;;;;6.33;65.89;97141.59;4971354;28;20093;-74
2024/03/09 08:23:30;;;;;;;16.27;14.15;;;;;;;6.41;65.62;97149.22;4976529;28;20022;-75
2024/03/09 08:26:00;;;;;;;15.80;13.70;;;;;;;6.45;66.20;97130.81;4985083;28;20042;-75
2024/03/09 08:28:30;;;;;;;15.75;12.98;;;;;;;6.65;65.67;97129.25;4993310;28;20126;-74
2024/03/09 08:30:57;;;;;;;15.82;13.57;;;;;;;6.61;64.92;97117.44;4977361;28;20053;-75
2024/03/09 08:33:22;;;;;;;15.02;13.32;;;;;;;6.72;64.91;97140.59;4955536;28;20395;-74
2024/03/09 08:35:48;;;;;;;15.95;13.52;;;;;;;6.77;64.53;97131.81;4976327;28;20137;-74
2024/03/09 08:38:13;;;;;;;16.05;13.90;;;;;;;6.69;64.14;97103.66;4957130;28;20022;-75
2024/03/09 08:40:40;;;;;;;16.77;14.70;;;;;;;6.80;64.31;97121.47;4959982;28;20409;-75
2024/03/09 08:43:06;;;;;;;17.00;14.75;;;;;;;6.84;63.57;97114.53;4958121;28;20034;-75
2024/03/09 08:45:33;;;;;;;14.02;12.57;;;;;;;6.74;63.57;97094.88;4953819;28;20594;-75
2024/03/09 08:47:58;;;;;;;15.20;13.43;;;;;;;6.98;62.70;97117.66;4958948;28;20077;-75
2024/03/09 08:50:27;;;;;;;14.55;13.05;;;;;;;7.06;63.10;97119.94;4957239;28;20121;-75
2024/03/09 08:52:52;;;;;;;15.45;13.07;;;;;;;7.04;62.38;97113.19;4968981;28;20027;-75
2024/03/09 08:55:18;;;;;;;14.77;13.07;;;;;;;7.17;62.84;97121.66;4968852;28;20076;-75
2024/03/09 08:57:46;;;;;;;13.38;11.75;;;;;;;7.18;62.80;97109.09;4992942;28;20029;-75
2024/03/09 09:00:12;;;;;;;15.10;13.48;;;;;;;7.30;63.01;97115.13;4960799;28;20213;-75
2024/03/09 09:02:38;;;;;;;14.40;12.50;;;;;;;7.43;62.92;97112.06;4994981;28;20061;-74
2024/03/09 09:05:11;;;;;;;14.77;13.00;;;;;;;7.41;62.74;97100.81;4956000;28;20062;-75
2024/03/09 09:07:45;;;;;;;15.48;12.63;;;;;;;7.57;62.46;97110.63;4988817;28;20043;-75
2024/03/09 09:10:14;;;;;;;13.95;12.45;;;;;;;7.51;62.10;97096.34;4971244;28;20088;-75
2024/03/09 09:12:45;;;;;;;15.00;12.63;;;;;;;7.59;61.61;97089.75;4989078;28;20501;-74
2024/03/09 09:15:12;;;;;;;13.57;12.02;;;;;;;7.73;62.38;97104.34;4962740;28;20033;-75
2024/03/09 09:17:37;;;;;;;14.00;12.45;;;;;;;7.67;62.02;97089.28;4958297;28;20026;-75
2024/03/09 09:20:13;;;;;;;12.88;11.07;;;;;;;7.84;61.28;97095.34;4972427;28;20474;-75
2024/03/09 09:22:43;;;;;;;12.25;10.07;;;;;;;7.95;60.43;97090.91;4992100;28;20518;-74
2024/03/09 09:25:12;;;;;;;13.35;11.18;;;;;;;7.94;60.82;97055.22;4954280;28;20030;-75
2024/03/09 09:27:38;;;;;;;12.25;10.90;;;;;;;7.95;61.26;97054.19;4968430;28;20037;-74
2024/03/09 09:30:05;;;;;;;11.88;10.50;;;;;;;8.30;59.97;97084.00;4985851;28;20045;-74
2024/03/09 09:32:30;;;;;;;12.80;10.95;;;;;;;8.38;60.19;97076.53;4969663;28;20030;-75
2024/03/09 09:34:55;;;;;;;13.23;11.43;;;;;;;8.43;59.88;97068.50;4969676;28;20030;-75
2024/03/09 09:37:21;;;;;;;12.93;11.13;;;;;;;8.48;59.55;97058.63;4960216;28;20019;-75
2024/03/09 09:39:49;;;;;;;11.48;10.30;;;;;;;8.57;58.73;97064.28;4958223;28;20039;-75
2024/03/09 09:42:16;;;;;;;12.48;10.63;;;;;;;8.65;58.33;97061.13;4964197;28;20405;-75
2024/03/09 09:44:43;;;;;;;11.48;10.27;;;;;;;8.60;58.59;97045.81;4990312;28;20128;-75
2024/03/09 09:47:10;;;;;;;14.80;10.90;;;;;;;8.64;58.34;97041.53;4973724;28;20022;-75
2024/03/09 09:49:36;;;;;;;12.55;10.27;;;;;;;8.76;58.69;97050.19;4958522;28;20038;-75
2024/03/09 09:52:03;;;;;;;14.98;11.88;;;;;;;8.87;58.75;97053.72;4992550;28;20026;-76
2024/03/09 09:54:30;;;;;;;11.55;9.80;;;;;;;8.94;57.85;97041.69;4940978;28;20409;-75
2024/03/09 09:56:56;;;;;;;11.93;10.40;;;;;;;8.90;57.38;97031.75;4959244;28;20018;-76
2024/03/09 09:59:25;;;;;;;10.85;9.70;;;;;;;9.04;57.38;97043.59;4971060;28;20038;-75
2024/03/09 10:01:51;;;;;;;12.00;10.10;;;;;;;9.21;57.85;97063.03;4958200;28;20033;-75
2024/03/09 10:04:17;;;;;;;11.48;9.77;;;;;;;9.34;56.90;97051.78;4973713;28;20034;-75
2024/03/09 10:06:45;;;;;;;10.85;9.80;;;;;;;9.27;56.63;97045.84;4971200;28;20027;-74
2024/03/09 10:09:10;;;;;;;13.02;11.00;;;;;;;9.40;57.34;97049.91;4975970;28;20042;-75
2024/03/09 10:11:36;;;;;;;11.52;9.73;;;;;;;9.42;55.75;97027.09;4971786;28;20104;-75
2024/03/09 10:14:01;;;;;;;11.60;9.70;;;;;;;9.55;57.19;97041.88;4967514;28;20062;-75
2024/03/09 10:16:31;;;;;;;10.98;9.68;;;;;;;9.60;56.49;97048.09;4970162;28;20038;-74
2024/03/09 10:18:58;;;;;;;13.00;10.20;;;;;;;9.67;56.44;97043.25;4945367;29;20043;-75
2024/03/09 10:21:33;;;;;;;14.10;10.48;;;;;;;9.62;55.87;97020.94;4974140;28;20030;-75
2024/03/09 10:24:02;;;;;;;11.57;9.30;;;;;;;9.81;55.77;97026.59;4965376;28;20053;-74
2024/03/09 10:26:27;;;;;;;11.43;9.57;;;;;;;9.94;55.43;97023.38;4948447;29;20059;-75
2024/03/09 10:28:58;;;;;;;11.63;9.43;;;;;;;9.90;54.92;97011.53;4973346;28;20513;-74
2024/03/09 10:31:24;;;;;;;12.68;10.10;;;;;;;9.90;55.69;96998.09;4976782;28;20125;-74
2024/03/09 10:33:56;;;;;;;13.02;10.82;;;;;;;10.03;55.60;97005.63;4963732;28;20114;-74
2024/03/09 10:36:23;;;;;;;10.25;8.98;;;;;;;10.14;54.63;96985.75;4958904;28;20035;-75
2024/03/09 10:38:51;;;;;;;10.93;9.57;;;;;;;10.10;54.64;96963.13;4971444;28;20034;-75
2024/03/09 10:41:19;;;;;;;10.77;9.60;;;;;;;10.38;54.40;96981.41;4979046;28;20410;-74
2024/03/09 10:43:45;;;;;;;11.75;9.25;;;;;;;10.38;54.36;96987.56;4978050;28;20019;-76
2024/03/09 10:46:15;;;;;;;10.45;8.68;;;;;;;10.35;53.80;96973.88;4960750;28;20038;-75
2024/03/09 10:48:43;;;;;;;11.00;9.23;;;;;;;10.32;53.66;96975.22;4998056;28;20520;-75
2024/03/09 10:51:19;;;;;;;12.18;9.52;;;;;;;10.41;53.42;96992.41;4997097;23;20049;-77
2024/03/09 10:53:52;;;;;;;12.48;9.93;;;;;;;10.45;52.71;96981.94;4992982;28;20064;-77
2024/03/09 10:56:24;;;;;;;10.40;9.30;;;;;;;10.37;52.46;96975.22;4997220;28;20627;-77
2024/03/09 10:58:53;;;;;;;12.70;10.05;;;;;;;10.56;53.65;96988.06;4997251;28;20449;-77
2024/03/09 11:01:21;;;;;;;10.18;9.10;;;;;;;10.51;53.65;96966.56;4962132;28;20019;-77
2024/03/09 11:03:50;;;;;;;10.23;9.10;;;;;;;10.65;52.62;96979.16;4970713;28;20092;-76
2024/03/09 11:06:19;;;;;;;10.35;8.73;;;;;;;10.73;52.29;96984.00;4960981;28;20023;-77
2024/03/09 11:08:50;;;;;;;10.25;8.93;;;;;;;10.76;52.38;96986.13;4963359;28;20493;-77
2024/03/09 11:11:18;;;;;;;10.00;8.93;;;;;;;10.72;52.38;96974.28;4975868;28;20402;-77
2024/03/09 11:13:44;;;;;;;10.32;9.05;;;;;;;10.84;52.44;96972.09;4951126;28;20146;-76
2024/03/09 11:16:12;;;;;;;12.23;9.18;;;;;;;10.82;52.34;96965.38;4959637;28;20046;-77
2024/03/09 11:18:40;;;;;;;11.35;9.38;;;;;;;10.90;52.47;96952.13;4974432;28;20117;-77
2024/03/09 11:21:07;;;;;;;10.90;9.18;;;;;;;11.11;52.44;96959.03;4978489;28;20494;-77
2024/03/09 11:23:36;;;;;;;11.30;8.88;;;;;;;11.19;51.54;96965.72;4957513;28;20031;-77
2024/03/09 11:26:03;;;;;;;11.07;9.25;;;;;;;11.15;52.37;96955.78;4976094;28;20034;-77